sensor_id;sensor_type;location;lat;lon;timestamp;temperature;humidity
30893;DHT22;17595;50.884;4.346;2023-12-07T00:01:36;7.90;99.90
30893;DHT22;17595;50.884;4.346;2023-12-07T00:04:03;7.80;99.90
30893;DHT22;17595;50.884;4.346;2023-12-07T00:06:29;7.90;99.90
30893;DHT22;17595;50.884;4.346;2023-12-07T00:08:54;8.00;99.90
30893;DHT22;17595;50.884;4.346;2023-12-07T00:11:22;7.90;99.90
30893;DHT22;17595;50.884;4.346;2023-12-07T00:13:48;7.90;99.90
30893;DHT22;17595;50.884;4.346;2023-12-07T00:16:14;7.80;99.90
30893;DHT22;17595;50.884;4.346;2023-12-07T00:18:40;7.80;99.90
30893;DHT22;17595;50.884;4.346;2023-12-07T00:21:08;7.80;99.90
30893;DHT22;17595;50.884;4.346;2023-12-07T00:23:34;8.00;99.90
30893;DHT22;17595;50.884;4.346;2023-12-07T00:25:59;8.10;99.90
30893;DHT22;17595;50.884;4.346;2023-12-07T00:28:25;8.10;99.90
30893;DHT22;17595;50.884;4.346;2023-12-07T00:30:51;8.10;99.90
30893;DHT22;17595;50.884;4.346;2023-12-07T00:33:16;8.10;99.90
30893;DHT22;17595;50.884;4.346;2023-12-07T00:35:42;8.30;99.90
30893;DHT22;17595;50.884;4.346;2023-12-07T00:38:08;8.40;99.90
30893;DHT22;17595;50.884;4.346;2023-12-07T00:40:34;8.40;99.90
30893;DHT22;17595;50.884;4.346;2023-12-07T00:43:02;8.40;99.90
30893;DHT22;17595;50.884;4.346;2023-12-07T00:45:28;8.40;99.90
30893;DHT22;17595;50.884;4.346;2023-12-07T00:47:54;8.20;99.90
30893;DHT22;17595;50.884;4.346;2023-12-07T00:50:20;8.20;99.90
30893;DHT22;17595;50.884;4.346;2023-12-07T00:52:45;8.30;99.90
30893;DHT22;17595;50.884;4.346;2023-12-07T00:55:11;8.50;99.90
30893;DHT22;17595;50.884;4.346;2023-12-07T00:57:37;8.60;99.90
30893;DHT22;17595;50.884;4.346;2023-12-07T01:00:02;8.40;99.90
30893;DHT22;17595;50.884;4.346;2023-12-07T01:02:29;8.30;99.90
30893;DHT22;17595;50.884;4.346;2023-12-07T01:04:55;8.40;99.90
30893;DHT22;17595;50.884;4.346;2023-12-07T01:07:20;8.40;99.90
30893;DHT22;17595;50.884;4.346;2023-12-07T01:09:46;8.30;99.90
30893;DHT22;17595;50.884;4.346;2023-12-07T01:12:12;8.30;99.90
30893;DHT22;17595;50.884;4.346;2023-12-07T01:14:38;8.40;99.90
30893;DHT22;17595;50.884;4.346;2023-12-07T01:17:04;8.40;99.90
30893;DHT22;17595;50.884;4.346;2023-12-07T01:19:29;8.40;99.90
30893;DHT22;17595;50.884;4.346;2023-12-07T01:21:55;8.40;99.90
30893;DHT22;17595;50.884;4.346;2023-12-07T01:24:21;8.40;99.90
30893;DHT22;17595;50.884;4.346;2023-12-07T01:26:46;8.50;99.90
30893;DHT22;17595;50.884;4.346;2023-12-07T01:29:12;8.60;99.90
30893;DHT22;17595;50.884;4.346;2023-12-07T01:31:40;8.70;99.90
30893;DHT22;17595;50.884;4.346;2023-12-07T01:34:05;8.60;99.90
30893;DHT22;17595;50.884;4.346;2023-12-07T01:36:31;8.70;99.90
30893;DHT22;17595;50.884;4.346;2023-12-07T01:38:56;8.80;99.90
30893;DHT22;17595;50.884;4.346;2023-12-07T01:41:22;8.60;99.90
30893;DHT22;17595;50.884;4.346;2023-12-07T01:43:48;8.30;99.90
30893;DHT22;17595;50.884;4.346;2023-12-07T01:46:15;8.20;99.90
30893;DHT22;17595;50.884;4.346;2023-12-07T01:48:42;8.10;99.90
30893;DHT22;17595;50.884;4.346;2023-12-07T01:51:09;8.00;99.90
30893;DHT22;17595;50.884;4.346;2023-12-07T01:53:38;8.00;99.90
30893;DHT22;17595;50.884;4.346;2023-12-07T01:56:04;8.10;99.90
30893;DHT22;17595;50.884;4.346;2023-12-07T01:58:32;8.00;99.90
30893;DHT22;17595;50.884;4.346;2023-12-07T02:00:57;8.20;99.90
30893;DHT22;17595;50.884;4.346;2023-12-07T02:03:23;8.40;99.90
30893;DHT22;17595;50.884;4.346;2023-12-07T02:05:49;8.50;99.90
30893;DHT22;17595;50.884;4.346;2023-12-07T02:08:16;8.80;99.90
30893;DHT22;17595;50.884;4.346;2023-12-07T02:10:42;8.90;99.90
30893;DHT22;17595;50.884;4.346;2023-12-07T02:13:08;8.90;99.90
30893;DHT22;17595;50.884;4.346;2023-12-07T02:15:35;8.90;99.90
30893;DHT22;17595;50.884;4.346;2023-12-07T02:18:09;8.70;99.90
30893;DHT22;17595;50.884;4.346;2023-12-07T02:20:48;8.50;99.90
30893;DHT22;17595;50.884;4.346;2023-12-07T02:23:18;8.40;99.90
30893;DHT22;17595;50.884;4.346;2023-12-07T02:26:03;8.30;99.90
30893;DHT22;17595;50.884;4.346;2023-12-07T02:28:29;8.30;99.90
30893;DHT22;17595;50.884;4.346;2023-12-07T02:30:55;8.30;99.90
30893;DHT22;17595;50.884;4.346;2023-12-07T02:33:21;8.40;99.90
30893;DHT22;17595;50.884;4.346;2023-12-07T02:35:46;8.50;99.90
30893;DHT22;17595;50.884;4.346;2023-12-07T02:38:12;8.60;99.90
30893;DHT22;17595;50.884;4.346;2023-12-07T02:40:39;8.80;99.90
30893;DHT22;17595;50.884;4.346;2023-12-07T02:43:06;8.90;99.90
30893;DHT22;17595;50.884;4.346;2023-12-07T02:45:33;9.00;99.90
30893;DHT22;17595;50.884;4.346;2023-12-07T02:47:59;9.00;99.90
30893;DHT22;17595;50.884;4.346;2023-12-07T02:50:25;9.00;99.90
30893;DHT22;17595;50.884;4.346;2023-12-07T02:52:50;8.80;99.90
30893;DHT22;17595;50.884;4.346;2023-12-07T02:55:16;8.80;99.90
30893;DHT22;17595;50.884;4.346;2023-12-07T02:57:42;8.50;99.90
30893;DHT22;17595;50.884;4.346;2023-12-07T03:00:08;8.50;99.90
30893;DHT22;17595;50.884;4.346;2023-12-07T03:02:37;8.40;99.90
30893;DHT22;17595;50.884;4.346;2023-12-07T03:05:04;8.40;99.90
30893;DHT22;17595;50.884;4.346;2023-12-07T03:07:30;8.50;99.90
30893;DHT22;17595;50.884;4.346;2023-12-07T03:09:55;8.50;99.90
30893;DHT22;17595;50.884;4.346;2023-12-07T03:12:21;8.50;99.90
30893;DHT22;17595;50.884;4.346;2023-12-07T03:14:48;8.60;99.90
30893;DHT22;17595;50.884;4.346;2023-12-07T03:17:14;8.70;99.90
30893;DHT22;17595;50.884;4.346;2023-12-07T03:19:40;8.70;99.90
30893;DHT22;17595;50.884;4.346;2023-12-07T03:22:06;8.60;99.90
30893;DHT22;17595;50.884;4.346;2023-12-07T03:24:33;8.50;99.90
30893;DHT22;17595;50.884;4.346;2023-12-07T03:26:59;8.50;99.90
30893;DHT22;17595;50.884;4.346;2023-12-07T03:29:25;8.40;99.90
30893;DHT22;17595;50.884;4.346;2023-12-07T03:31:50;8.50;99.90
30893;DHT22;17595;50.884;4.346;2023-12-07T03:34:16;8.60;99.90
30893;DHT22;17595;50.884;4.346;2023-12-07T03:36:46;8.80;99.90
30893;DHT22;17595;50.884;4.346;2023-12-07T03:39:13;8.90;99.90
30893;DHT22;17595;50.884;4.346;2023-12-07T03:41:39;8.90;99.90
30893;DHT22;17595;50.884;4.346;2023-12-07T03:44:04;8.90;99.90
30893;DHT22;17595;50.884;4.346;2023-12-07T03:46:30;8.90;99.90
30893;DHT22;17595;50.884;4.346;2023-12-07T03:48:55;8.80;99.90
30893;DHT22;17595;50.884;4.346;2023-12-07T03:51:21;8.70;99.90
30893;DHT22;17595;50.884;4.346;2023-12-07T03:53:47;8.70;99.90
30893;DHT22;17595;50.884;4.346;2023-12-07T03:56:28;8.80;99.90
30893;DHT22;17595;50.884;4.346;2023-12-07T03:58:54;8.80;99.90
30893;DHT22;17595;50.884;4.346;2023-12-07T04:01:27;8.80;99.90
30893;DHT22;17595;50.884;4.346;2023-12-07T04:03:54;8.70;99.90
30893;DHT22;17595;50.884;4.346;2023-12-07T04:06:21;8.50;99.90
30893;DHT22;17595;50.884;4.346;2023-12-07T04:08:47;8.50;99.90
30893;DHT22;17595;50.884;4.346;2023-12-07T04:11:13;8.50;99.90
30893;DHT22;17595;50.884;4.346;2023-12-07T04:13:39;8.50;99.90
30893;DHT22;17595;50.884;4.346;2023-12-07T04:16:06;8.40;99.90
30893;DHT22;17595;50.884;4.346;2023-12-07T04:18:31;8.40;99.90
30893;DHT22;17595;50.884;4.346;2023-12-07T04:20:57;8.30;99.90
30893;DHT22;17595;50.884;4.346;2023-12-07T04:23:23;8.20;99.90
30893;DHT22;17595;50.884;4.346;2023-12-07T04:25:49;8.50;99.90
30893;DHT22;17595;50.884;4.346;2023-12-07T04:28:14;8.60;99.90
30893;DHT22;17595;50.884;4.346;2023-12-07T04:30:40;8.70;99.90
30893;DHT22;17595;50.884;4.346;2023-12-07T04:33:06;8.50;99.90
30893;DHT22;17595;50.884;4.346;2023-12-07T04:35:32;8.40;99.90
30893;DHT22;17595;50.884;4.346;2023-12-07T04:37:57;8.50;99.90
30893;DHT22;17595;50.884;4.346;2023-12-07T04:40:24;8.70;99.90
30893;DHT22;17595;50.884;4.346;2023-12-07T04:42:50;8.80;99.90
30893;DHT22;17595;50.884;4.346;2023-12-07T04:45:16;8.80;99.90
30893;DHT22;17595;50.884;4.346;2023-12-07T04:47:41;8.80;99.90
30893;DHT22;17595;50.884;4.346;2023-12-07T04:50:07;8.80;99.90
30893;DHT22;17595;50.884;4.346;2023-12-07T04:52:33;8.80;99.90
30893;DHT22;17595;50.884;4.346;2023-12-07T04:54:59;8.80;99.90
30893;DHT22;17595;50.884;4.346;2023-12-07T04:57:25;8.80;99.90
30893;DHT22;17595;50.884;4.346;2023-12-07T04:59:50;8.70;99.90
30893;DHT22;17595;50.884;4.346;2023-12-07T05:02:17;8.60;99.90
30893;DHT22;17595;50.884;4.346;2023-12-07T05:04:43;8.70;99.90
30893;DHT22;17595;50.884;4.346;2023-12-07T05:07:13;8.60;99.90
30893;DHT22;17595;50.884;4.346;2023-12-07T05:09:39;8.70;99.90
30893;DHT22;17595;50.884;4.346;2023-12-07T05:12:06;8.60;99.90
30893;DHT22;17595;50.884;4.346;2023-12-07T05:14:32;8.60;99.90
30893;DHT22;17595;50.884;4.346;2023-12-07T05:16:57;8.70;99.90
30893;DHT22;17595;50.884;4.346;2023-12-07T05:19:24;8.70;99.90
30893;DHT22;17595;50.884;4.346;2023-12-07T05:21:51;8.70;99.90
30893;DHT22;17595;50.884;4.346;2023-12-07T05:24:16;8.70;99.90
30893;DHT22;17595;50.884;4.346;2023-12-07T05:26:43;8.60;99.90
30893;DHT22;17595;50.884;4.346;2023-12-07T05:29:09;8.60;99.90
30893;DHT22;17595;50.884;4.346;2023-12-07T05:31:35;8.60;99.90
30893;DHT22;17595;50.884;4.346;2023-12-07T05:34:01;8.60;99.90
30893;DHT22;17595;50.884;4.346;2023-12-07T05:36:27;8.50;99.90
30893;DHT22;17595;50.884;4.346;2023-12-07T05:38:52;8.60;99.90
30893;DHT22;17595;50.884;4.346;2023-12-07T05:41:18;8.60;99.90
30893;DHT22;17595;50.884;4.346;2023-12-07T05:43:44;8.70;99.90
30893;DHT22;17595;50.884;4.346;2023-12-07T05:46:09;8.70;99.90
30893;DHT22;17595;50.884;4.346;2023-12-07T05:48:35;8.60;99.90
30893;DHT22;17595;50.884;4.346;2023-12-07T05:51:04;8.60;99.90
30893;DHT22;17595;50.884;4.346;2023-12-07T05:53:29;8.50;99.90
30893;DHT22;17595;50.884;4.346;2023-12-07T05:55:58;8.50;99.90
30893;DHT22;17595;50.884;4.346;2023-12-07T05:58:24;8.40;99.90
30893;DHT22;17595;50.884;4.346;2023-12-07T06:00:49;8.40;99.90
30893;DHT22;17595;50.884;4.346;2023-12-07T06:03:15;8.30;99.90
30893;DHT22;17595;50.884;4.346;2023-12-07T06:05:41;8.40;99.90
30893;DHT22;17595;50.884;4.346;2023-12-07T06:08:07;8.40;99.90
30893;DHT22;17595;50.884;4.346;2023-12-07T06:10:33;8.40;99.90
30893;DHT22;17595;50.884;4.346;2023-12-07T06:13:00;8.40;99.90
30893;DHT22;17595;50.884;4.346;2023-12-07T06:15:26;8.40;99.90
30893;DHT22;17595;50.884;4.346;2023-12-07T06:17:53;8.40;99.90
30893;DHT22;17595;50.884;4.346;2023-12-07T06:20:19;8.50;99.90
30893;DHT22;17595;50.884;4.346;2023-12-07T06:22:45;8.50;99.90
30893;DHT22;17595;50.884;4.346;2023-12-07T06:25:11;8.40;99.90
30893;DHT22;17595;50.884;4.346;2023-12-07T06:27:37;8.50;99.90
30893;DHT22;17595;50.884;4.346;2023-12-07T06:30:04;8.40;99.90
30893;DHT22;17595;50.884;4.346;2023-12-07T06:32:31;8.40;99.90
30893;DHT22;17595;50.884;4.346;2023-12-07T06:34:57;8.50;99.90
30893;DHT22;17595;50.884;4.346;2023-12-07T06:37:23;8.40;99.90
30893;DHT22;17595;50.884;4.346;2023-12-07T06:39:49;8.40;99.90
30893;DHT22;17595;50.884;4.346;2023-12-07T06:42:14;8.20;99.90
30893;DHT22;17595;50.884;4.346;2023-12-07T06:44:42;8.30;99.90
30893;DHT22;17595;50.884;4.346;2023-12-07T06:47:08;8.30;99.90
30893;DHT22;17595;50.884;4.346;2023-12-07T06:49:35;8.30;99.90
30893;DHT22;17595;50.884;4.346;2023-12-07T06:52:01;8.30;99.90
30893;DHT22;17595;50.884;4.346;2023-12-07T06:54:27;8.30;99.90
30893;DHT22;17595;50.884;4.346;2023-12-07T06:56:53;8.30;99.90
30893;DHT22;17595;50.884;4.346;2023-12-07T06:59:19;8.20;99.90
30893;DHT22;17595;50.884;4.346;2023-12-07T07:01:45;8.20;99.90
30893;DHT22;17595;50.884;4.346;2023-12-07T07:04:11;8.20;99.90
30893;DHT22;17595;50.884;4.346;2023-12-07T07:06:39;8.30;99.90
30893;DHT22;17595;50.884;4.346;2023-12-07T07:09:05;8.30;99.90
30893;DHT22;17595;50.884;4.346;2023-12-07T07:11:31;8.30;99.90
30893;DHT22;17595;50.884;4.346;2023-12-07T07:13:56;8.30;99.90
30893;DHT22;17595;50.884;4.346;2023-12-07T07:16:22;8.30;99.90
30893;DHT22;17595;50.884;4.346;2023-12-07T07:18:48;8.30;99.90
30893;DHT22;17595;50.884;4.346;2023-12-07T07:21:13;8.40;99.90
30893;DHT22;17595;50.884;4.346;2023-12-07T07:23:39;8.40;99.90
30893;DHT22;17595;50.884;4.346;2023-12-07T07:26:05;8.30;99.90
30893;DHT22;17595;50.884;4.346;2023-12-07T07:28:30;8.30;99.90
30893;DHT22;17595;50.884;4.346;2023-12-07T07:30:56;8.30;99.90
30893;DHT22;17595;50.884;4.346;2023-12-07T07:33:22;8.30;99.90
30893;DHT22;17595;50.884;4.346;2023-12-07T07:35:47;8.30;99.90
30893;DHT22;17595;50.884;4.346;2023-12-07T07:38:13;8.20;99.90
30893;DHT22;17595;50.884;4.346;2023-12-07T07:40:40;8.00;99.90
30893;DHT22;17595;50.884;4.346;2023-12-07T07:43:05;8.10;99.90
30893;DHT22;17595;50.884;4.346;2023-12-07T07:45:31;8.10;99.90
30893;DHT22;17595;50.884;4.346;2023-12-07T07:47:57;8.20;99.90
30893;DHT22;17595;50.884;4.346;2023-12-07T07:50:22;8.20;99.90
30893;DHT22;17595;50.884;4.346;2023-12-07T07:52:48;8.20;99.90
30893;DHT22;17595;50.884;4.346;2023-12-07T07:55:13;8.20;99.90
30893;DHT22;17595;50.884;4.346;2023-12-07T07:57:39;8.30;99.90
30893;DHT22;17595;50.884;4.346;2023-12-07T08:00:05;8.20;99.90
30893;DHT22;17595;50.884;4.346;2023-12-07T08:02:33;8.30;99.90
30893;DHT22;17595;50.884;4.346;2023-12-07T08:04:59;8.30;99.90
30893;DHT22;17595;50.884;4.346;2023-12-07T08:07:25;8.30;99.90
30893;DHT22;17595;50.884;4.346;2023-12-07T08:09:50;8.30;99.90
30893;DHT22;17595;50.884;4.346;2023-12-07T08:12:16;8.30;99.90
30893;DHT22;17595;50.884;4.346;2023-12-07T08:14:42;8.40;99.90
30893;DHT22;17595;50.884;4.346;2023-12-07T08:17:09;8.40;99.90
30893;DHT22;17595;50.884;4.346;2023-12-07T08:19:35;8.40;99.90
30893;DHT22;17595;50.884;4.346;2023-12-07T08:22:00;8.50;99.90
30893;DHT22;17595;50.884;4.346;2023-12-07T08:24:26;8.60;99.90
30893;DHT22;17595;50.884;4.346;2023-12-07T08:26:51;8.60;99.90
30893;DHT22;17595;50.884;4.346;2023-12-07T08:29:17;8.70;99.90
30893;DHT22;17595;50.884;4.346;2023-12-07T08:31:43;8.60;99.90
30893;DHT22;17595;50.884;4.346;2023-12-07T08:34:08;8.70;99.90
30893;DHT22;17595;50.884;4.346;2023-12-07T08:36:34;8.70;99.90
30893;DHT22;17595;50.884;4.346;2023-12-07T08:38:59;8.80;99.90
30893;DHT22;17595;50.884;4.346;2023-12-07T08:41:25;8.80;99.90
30893;DHT22;17595;50.884;4.346;2023-12-07T08:43:51;8.90;99.90
30893;DHT22;17595;50.884;4.346;2023-12-07T08:46:16;8.90;99.90
30893;DHT22;17595;50.884;4.346;2023-12-07T08:48:42;8.80;99.90
30893;DHT22;17595;50.884;4.346;2023-12-07T08:51:08;8.90;99.90
30893;DHT22;17595;50.884;4.346;2023-12-07T08:53:34;8.90;99.90
30893;DHT22;17595;50.884;4.346;2023-12-07T08:56:01;9.00;99.90
30893;DHT22;17595;50.884;4.346;2023-12-07T08:58:27;9.00;99.90
30893;DHT22;17595;50.884;4.346;2023-12-07T09:00:52;9.00;99.90
30893;DHT22;17595;50.884;4.346;2023-12-07T09:03:18;9.00;99.90
30893;DHT22;17595;50.884;4.346;2023-12-07T09:05:44;9.10;99.90
30893;DHT22;17595;50.884;4.346;2023-12-07T09:08:09;9.10;99.90
30893;DHT22;17595;50.884;4.346;2023-12-07T09:10:35;9.00;99.90
30893;DHT22;17595;50.884;4.346;2023-12-07T09:13:01;9.10;99.90
30893;DHT22;17595;50.884;4.346;2023-12-07T09:15:26;9.20;99.90
30893;DHT22;17595;50.884;4.346;2023-12-07T09:17:52;9.20;99.90
30893;DHT22;17595;50.884;4.346;2023-12-07T09:20:18;9.20;99.90
30893;DHT22;17595;50.884;4.346;2023-12-07T09:22:45;9.20;99.90
30893;DHT22;17595;50.884;4.346;2023-12-07T09:25:11;9.20;99.90
30893;DHT22;17595;50.884;4.346;2023-12-07T09:27:38;9.20;99.90
30893;DHT22;17595;50.884;4.346;2023-12-07T09:30:08;9.20;99.90
30893;DHT22;17595;50.884;4.346;2023-12-07T09:32:37;9.20;99.90
30893;DHT22;17595;50.884;4.346;2023-12-07T09:35:07;9.30;99.90
30893;DHT22;17595;50.884;4.346;2023-12-07T09:37:34;9.30;99.90
30893;DHT22;17595;50.884;4.346;2023-12-07T09:40:00;9.20;99.90
30893;DHT22;17595;50.884;4.346;2023-12-07T09:42:26;9.20;99.90
30893;DHT22;17595;50.884;4.346;2023-12-07T09:44:54;9.10;99.90
30893;DHT22;17595;50.884;4.346;2023-12-07T09:47:20;9.10;99.90
30893;DHT22;17595;50.884;4.346;2023-12-07T09:49:46;9.10;99.90
30893;DHT22;17595;50.884;4.346;2023-12-07T09:52:11;9.20;99.90
30893;DHT22;17595;50.884;4.346;2023-12-07T09:54:42;9.10;99.90
30893;DHT22;17595;50.884;4.346;2023-12-07T09:57:07;9.10;99.90
30893;DHT22;17595;50.884;4.346;2023-12-07T09:59:35;9.20;99.90
30893;DHT22;17595;50.884;4.346;2023-12-07T10:02:01;9.20;99.90
30893;DHT22;17595;50.884;4.346;2023-12-07T10:04:27;9.30;99.90
30893;DHT22;17595;50.884;4.346;2023-12-07T10:06:53;9.30;99.90
30893;DHT22;17595;50.884;4.346;2023-12-07T10:09:20;9.40;99.90
30893;DHT22;17595;50.884;4.346;2023-12-07T10:11:47;9.50;99.90
30893;DHT22;17595;50.884;4.346;2023-12-07T10:14:13;9.40;99.90
30893;DHT22;17595;50.884;4.346;2023-12-07T10:16:39;9.30;99.90
30893;DHT22;17595;50.884;4.346;2023-12-07T10:19:17;9.30;99.90
30893;DHT22;17595;50.884;4.346;2023-12-07T10:21:50;9.30;99.90
30893;DHT22;17595;50.884;4.346;2023-12-07T10:24:17;9.30;99.90
30893;DHT22;17595;50.884;4.346;2023-12-07T10:26:44;9.40;99.90
30893;DHT22;17595;50.884;4.346;2023-12-07T10:29:13;9.40;99.90
30893;DHT22;17595;50.884;4.346;2023-12-07T10:31:39;9.50;99.90
30893;DHT22;17595;50.884;4.346;2023-12-07T10:34:05;9.60;99.90
30893;DHT22;17595;50.884;4.346;2023-12-07T10:36:31;9.60;99.90
30893;DHT22;17595;50.884;4.346;2023-12-07T10:38:58;9.50;99.90
30893;DHT22;17595;50.884;4.346;2023-12-07T10:41:24;9.50;99.90
30893;DHT22;17595;50.884;4.346;2023-12-07T10:43:58;9.60;99.90
30893;DHT22;17595;50.884;4.346;2023-12-07T10:46:25;9.50;99.90
30893;DHT22;17595;50.884;4.346;2023-12-07T10:48:55;9.50;99.90
30893;DHT22;17595;50.884;4.346;2023-12-07T10:51:34;9.60;99.90
30893;DHT22;17595;50.884;4.346;2023-12-07T10:54:03;9.50;99.90
30893;DHT22;17595;50.884;4.346;2023-12-07T10:56:39;9.50;99.90
30893;DHT22;17595;50.884;4.346;2023-12-07T10:59:10;9.40;99.90
30893;DHT22;17595;50.884;4.346;2023-12-07T11:01:40;9.50;99.90
30893;DHT22;17595;50.884;4.346;2023-12-07T11:04:06;9.50;99.90
30893;DHT22;17595;50.884;4.346;2023-12-07T11:06:33;9.40;99.90
30893;DHT22;17595;50.884;4.346;2023-12-07T11:09:03;9.50;99.90
30893;DHT22;17595;50.884;4.346;2023-12-07T11:11:36;9.60;99.90
30893;DHT22;17595;50.884;4.346;2023-12-07T11:14:09;9.60;99.90
30893;DHT22;17595;50.884;4.346;2023-12-07T11:16:44;9.50;99.90
30893;DHT22;17595;50.884;4.346;2023-12-07T11:22:06;9.60;99.90
30893;DHT22;17595;50.884;4.346;2023-12-07T11:24:32;9.70;99.90
30893;DHT22;17595;50.884;4.346;2023-12-07T11:26:58;9.80;99.90
30893;DHT22;17595;50.884;4.346;2023-12-07T11:29:25;9.80;99.90
30893;DHT22;17595;50.884;4.346;2023-12-07T11:31:51;10.00;99.90
30893;DHT22;17595;50.884;4.346;2023-12-07T11:34:36;10.10;99.90
30893;DHT22;17595;50.884;4.346;2023-12-07T11:37:03;10.20;99.90
30893;DHT22;17595;50.884;4.346;2023-12-07T11:39:29;10.20;99.90
30893;DHT22;17595;50.884;4.346;2023-12-07T11:42:15;10.20;99.90
30893;DHT22;17595;50.884;4.346;2023-12-07T11:44:42;10.20;99.90
30893;DHT22;17595;50.884;4.346;2023-12-07T11:47:10;10.20;99.90
30893;DHT22;17595;50.884;4.346;2023-12-07T11:49:42;10.20;99.90
30893;DHT22;17595;50.884;4.346;2023-12-07T11:52:19;10.20;99.90
30893;DHT22;17595;50.884;4.346;2023-12-07T11:54:45;10.30;99.90
30893;DHT22;17595;50.884;4.346;2023-12-07T11:57:12;10.30;99.90
30893;DHT22;17595;50.884;4.346;2023-12-07T11:59:38;10.30;99.90
30893;DHT22;17595;50.884;4.346;2023-12-07T12:02:04;10.30;99.90
30893;DHT22;17595;50.884;4.346;2023-12-07T12:04:29;10.20;99.90
30893;DHT22;17595;50.884;4.346;2023-12-07T12:06:55;10.20;99.90
30893;DHT22;17595;50.884;4.346;2023-12-07T12:09:20;10.20;99.90
30893;DHT22;17595;50.884;4.346;2023-12-07T12:11:47;10.20;99.90
30893;DHT22;17595;50.884;4.346;2023-12-07T12:14:16;10.30;99.90
30893;DHT22;17595;50.884;4.346;2023-12-07T12:16:46;10.40;99.90
30893;DHT22;17595;50.884;4.346;2023-12-07T12:19:12;10.50;99.90
30893;DHT22;17595;50.884;4.346;2023-12-07T12:21:41;10.50;99.90
30893;DHT22;17595;50.884;4.346;2023-12-07T12:24:12;10.50;99.90
30893;DHT22;17595;50.884;4.346;2023-12-07T12:26:41;10.50;99.90
30893;DHT22;17595;50.884;4.346;2023-12-07T12:29:07;10.50;99.90
30893;DHT22;17595;50.884;4.346;2023-12-07T12:31:37;10.60;99.90
30893;DHT22;17595;50.884;4.346;2023-12-07T12:34:05;10.60;99.90
30893;DHT22;17595;50.884;4.346;2023-12-07T12:36:31;10.60;99.90
30893;DHT22;17595;50.884;4.346;2023-12-07T12:38:57;10.60;99.90
30893;DHT22;17595;50.884;4.346;2023-12-07T12:41:23;10.70;99.90
30893;DHT22;17595;50.884;4.346;2023-12-07T12:43:49;10.70;99.90
30893;DHT22;17595;50.884;4.346;2023-12-07T12:46:16;10.60;99.90
30893;DHT22;17595;50.884;4.346;2023-12-07T12:48:55;10.60;99.90
30893;DHT22;17595;50.884;4.346;2023-12-07T12:51:27;10.60;99.90
30893;DHT22;17595;50.884;4.346;2023-12-07T12:53:54;10.50;99.90
30893;DHT22;17595;50.884;4.346;2023-12-07T12:56:20;10.50;99.90
30893;DHT22;17595;50.884;4.346;2023-12-07T12:58:48;10.60;99.90
30893;DHT22;17595;50.884;4.346;2023-12-07T13:01:15;10.70;99.90
30893;DHT22;17595;50.884;4.346;2023-12-07T13:03:43;10.70;99.90
30893;DHT22;17595;50.884;4.346;2023-12-07T13:06:11;10.70;99.90
30893;DHT22;17595;50.884;4.346;2023-12-07T13:08:37;10.70;99.90
30893;DHT22;17595;50.884;4.346;2023-12-07T13:11:03;10.60;99.90
30893;DHT22;17595;50.884;4.346;2023-12-07T13:13:29;10.60;99.90
30893;DHT22;17595;50.884;4.346;2023-12-07T13:15:55;10.70;99.90
30893;DHT22;17595;50.884;4.346;2023-12-07T13:18:20;10.70;99.90
30893;DHT22;17595;50.884;4.346;2023-12-07T13:20:46;10.70;99.90
30893;DHT22;17595;50.884;4.346;2023-12-07T13:23:12;10.70;99.90
30893;DHT22;17595;50.884;4.346;2023-12-07T13:25:37;10.90;99.90
30893;DHT22;17595;50.884;4.346;2023-12-07T13:28:03;10.80;99.90
30893;DHT22;17595;50.884;4.346;2023-12-07T13:30:29;10.90;99.90
30893;DHT22;17595;50.884;4.346;2023-12-07T13:32:59;10.90;99.90
30893;DHT22;17595;50.884;4.346;2023-12-07T13:35:25;10.90;99.90
30893;DHT22;17595;50.884;4.346;2023-12-07T13:37:50;10.80;99.90
30893;DHT22;17595;50.884;4.346;2023-12-07T13:40:16;10.80;99.90
30893;DHT22;17595;50.884;4.346;2023-12-07T13:42:42;10.70;99.90
30893;DHT22;17595;50.884;4.346;2023-12-07T13:45:08;10.70;99.90
30893;DHT22;17595;50.884;4.346;2023-12-07T13:47:34;10.80;99.90
30893;DHT22;17595;50.884;4.346;2023-12-07T13:50:03;10.90;99.90
30893;DHT22;17595;50.884;4.346;2023-12-07T13:52:30;10.80;99.90
30893;DHT22;17595;50.884;4.346;2023-12-07T13:54:56;10.80;99.90
30893;DHT22;17595;50.884;4.346;2023-12-07T13:57:23;10.80;99.90
30893;DHT22;17595;50.884;4.346;2023-12-07T13:59:53;10.70;99.90
30893;DHT22;17595;50.884;4.346;2023-12-07T14:02:19;10.70;99.90
30893;DHT22;17595;50.884;4.346;2023-12-07T14:04:45;10.60;99.90
30893;DHT22;17595;50.884;4.346;2023-12-07T14:07:13;10.60;99.90
30893;DHT22;17595;50.884;4.346;2023-12-07T14:09:40;10.50;99.90
30893;DHT22;17595;50.884;4.346;2023-12-07T14:12:07;10.60;99.90
30893;DHT22;17595;50.884;4.346;2023-12-07T14:14:34;10.50;99.90
30893;DHT22;17595;50.884;4.346;2023-12-07T14:17:00;10.50;99.90
30893;DHT22;17595;50.884;4.346;2023-12-07T14:19:26;10.40;99.90
30893;DHT22;17595;50.884;4.346;2023-12-07T14:21:51;10.40;99.90
30893;DHT22;17595;50.884;4.346;2023-12-07T14:24:18;10.30;99.90
30893;DHT22;17595;50.884;4.346;2023-12-07T14:26:44;10.30;99.90
30893;DHT22;17595;50.884;4.346;2023-12-07T14:29:10;10.30;99.90
30893;DHT22;17595;50.884;4.346;2023-12-07T14:31:40;10.30;99.90
30893;DHT22;17595;50.884;4.346;2023-12-07T14:34:06;10.30;99.90
30893;DHT22;17595;50.884;4.346;2023-12-07T14:36:32;10.20;99.90
30893;DHT22;17595;50.884;4.346;2023-12-07T14:38:58;10.20;99.90
30893;DHT22;17595;50.884;4.346;2023-12-07T14:41:23;10.20;99.90
30893;DHT22;17595;50.884;4.346;2023-12-07T14:43:49;10.30;99.90
30893;DHT22;17595;50.884;4.346;2023-12-07T14:46:15;10.20;99.90
30893;DHT22;17595;50.884;4.346;2023-12-07T14:48:40;10.20;99.90
30893;DHT22;17595;50.884;4.346;2023-12-07T14:51:06;10.20;99.90
30893;DHT22;17595;50.884;4.346;2023-12-07T14:53:32;10.20;99.90
30893;DHT22;17595;50.884;4.346;2023-12-07T14:55:59;10.20;99.90
30893;DHT22;17595;50.884;4.346;2023-12-07T14:58:25;10.20;99.90
30893;DHT22;17595;50.884;4.346;2023-12-07T15:00:51;10.20;99.90
30893;DHT22;17595;50.884;4.346;2023-12-07T15:03:17;10.20;99.90
30893;DHT22;17595;50.884;4.346;2023-12-07T15:05:44;10.20;99.90
30893;DHT22;17595;50.884;4.346;2023-12-07T15:08:10;10.10;99.90
30893;DHT22;17595;50.884;4.346;2023-12-07T15:10:37;10.00;99.90
30893;DHT22;17595;50.884;4.346;2023-12-07T15:13:03;10.00;99.90
30893;DHT22;17595;50.884;4.346;2023-12-07T15:15:30;10.10;99.90
30893;DHT22;17595;50.884;4.346;2023-12-07T15:17:56;10.00;99.90
30893;DHT22;17595;50.884;4.346;2023-12-07T15:20:21;10.00;99.90
30893;DHT22;17595;50.884;4.346;2023-12-07T15:22:47;10.10;99.90
30893;DHT22;17595;50.884;4.346;2023-12-07T15:25:13;10.10;99.90
30893;DHT22;17595;50.884;4.346;2023-12-07T15:27:39;10.00;99.90
30893;DHT22;17595;50.884;4.346;2023-12-07T15:30:05;10.00;99.90
30893;DHT22;17595;50.884;4.346;2023-12-07T15:32:35;9.90;99.90
30893;DHT22;17595;50.884;4.346;2023-12-07T15:35:00;9.90;99.90
30893;DHT22;17595;50.884;4.346;2023-12-07T15:37:27;9.80;99.90
30893;DHT22;17595;50.884;4.346;2023-12-07T15:39:55;9.80;99.90
30893;DHT22;17595;50.884;4.346;2023-12-07T15:42:22;9.80;99.90